Time;durP1;ratioP1;P1;durP2;ratioP2;P2;SDS_P1;SDS_P2;PMS_P1;PMS_P2;Temp;Humidity;BMP_temperature;BMP_pressure;BME280_temperature;BME280_humidity;BME280_pressure;Samples;Min_cycle;Max_cycle;Signal;HPM_P1;HPM_P2
2022/04/22 00:00:32;;;;;;;9.25;8.25;;;9.20;98.80;;;;;;5046702;28;20037;-80
2022/04/22 00:02:59;;;;;;;11.13;9.80;;;9.10;99.00;;;;;;5047601;28;20041;-81
2022/04/22 00:05:25;;;;;;;11.05;9.77;;;9.10;99.00;;;;;;5047316;28;20036;-81
2022/04/22 00:07:51;;;;;;;9.68;8.57;;;9.10;99.20;;;;;;5051104;28;20025;-80
2022/04/22 00:10:17;;;;;;;9.95;8.05;;;9.00;99.70;;;;;;5048809;28;20029;-81
2022/04/22 00:12:44;;;;;;;10.18;9.27;;;9.00;99.90;;;;;;5045757;28;20032;-82
2022/04/22 00:15:13;;;;;;;10.95;9.57;;;8.90;99.90;;;;;;5047511;28;20044;-80
2022/04/22 00:17:41;;;;;;;12.38;10.05;;;8.90;99.90;;;;;;5050630;28;20033;-80
2022/04/22 00:20:10;;;;;;;10.50;9.48;;;8.90;99.90;;;;;;5046591;28;20033;-80
2022/04/22 00:22:37;;;;;;;10.20;8.98;;;8.80;99.90;;;;;;5044088;28;20044;-81
2022/04/22 00:25:04;;;;;;;13.23;9.65;;;8.70;99.90;;;;;;5047958;28;20033;-80
2022/04/22 00:27:30;;;;;;;10.50;9.57;;;8.80;99.90;;;;;;5047323;28;20033;-80
2022/04/22 00:29:56;;;;;;;12.52;10.15;;;8.70;99.90;;;;;;5050992;28;20474;-80
2022/04/22 00:32:22;;;;;;;12.30;10.30;;;8.70;99.90;;;;;;5044573;28;20026;-81
2022/04/22 00:34:49;;;;;;;12.20;10.98;;;8.60;99.90;;;;;;5044000;28;20037;-81
2022/04/22 00:37:15;;;;;;;15.20;11.48;;;8.50;99.90;;;;;;5041506;28;20053;-81
2022/04/22 00:39:41;;;;;;;10.93;9.85;;;8.40;99.90;;;;;;5048606;28;20036;-78
2022/04/22 00:42:10;;;;;;;12.98;10.68;;;8.30;99.90;;;;;;5048763;28;20033;-80
2022/04/22 00:44:37;;;;;;;11.77;9.70;;;8.30;99.90;;;;;;5052833;28;20045;-77
2022/04/22 00:47:04;;;;;;;11.32;10.10;;;8.20;99.90;;;;;;5056377;28;20048;-77
2022/04/22 00:49:30;;;;;;;13.07;11.10;;;8.20;99.90;;;;;;5051971;28;20044;-80
2022/04/22 00:51:56;;;;;;;11.80;10.60;;;8.10;99.90;;;;;;5052410;28;20041;-79
2022/04/22 00:54:23;;;;;;;12.93;11.57;;;8.00;99.90;;;;;;5044173;28;20033;-78
2022/04/22 00:56:50;;;;;;;12.50;11.23;;;7.90;99.90;;;;;;5049135;28;20045;-80
2022/04/22 00:59:17;;;;;;;14.68;12.07;;;7.90;99.90;;;;;;5041862;28;20060;-81
2022/04/22 01:01:43;;;;;;;10.98;10.00;;;8.00;99.90;;;;;;5050196;28;20383;-80
2022/04/22 01:09:51;;;;;;;16.80;12.63;;;7.80;99.90;;;;;;5047069;28;20044;-80
2022/04/22 01:12:18;;;;;;;13.43;12.18;;;7.70;99.90;;;;;;5041679;28;20029;-79
2022/04/22 01:14:45;;;;;;;19.95;13.32;;;7.70;99.90;;;;;;5044258;28;20022;-78
2022/04/22 01:17:12;;;;;;;17.33;13.10;;;7.70;99.90;;;;;;5045981;28;20037;-80
2022/04/22 01:19:39;;;;;;;14.85;13.20;;;7.70;99.90;;;;;;5047498;28;20022;-80
2022/04/22 01:22:05;;;;;;;13.43;11.15;;;7.60;99.90;;;;;;5050074;28;20036;-80
2022/04/22 01:24:31;;;;;;;13.45;12.13;;;7.50;99.90;;;;;;5048284;28;20041;-79
2022/04/22 01:26:58;;;;;;;14.82;12.73;;;7.50;99.90;;;;;;5047679;28;20032;-81
2022/04/22 01:29:24;;;;;;;18.38;15.45;;;7.40;99.90;;;;;;5045862;28;20033;-81
2022/04/22 01:31:50;;;;;;;20.30;13.77;;;7.30;99.90;;;;;;5049819;28;20025;-80
2022/04/22 01:34:17;;;;;;;16.02;14.32;;;7.30;99.90;;;;;;5048286;28;20381;-80
2022/04/22 01:36:43;;;;;;;14.48;13.00;;;7.10;99.90;;;;;;5042599;28;20044;-82
2022/04/22 01:39:09;;;;;;;14.52;12.57;;;6.90;99.90;;;;;;5044444;28;20033;-81
2022/04/22 01:41:35;;;;;;;16.73;13.73;;;6.90;99.90;;;;;;5048865;28;20398;-81
2022/04/22 01:44:01;;;;;;;14.45;12.85;;;6.70;99.90;;;;;;5045545;28;20029;-82
2022/04/22 01:46:28;;;;;;;16.95;13.07;;;6.60;99.90;;;;;;5049643;28;20402;-80
2022/04/22 01:48:54;;;;;;;16.10;14.45;;;6.60;99.90;;;;;;5050550;28;20029;-81
2022/04/22 01:51:20;;;;;;;14.68;13.38;;;6.50;99.90;;;;;;5053298;28;20044;-81
2022/04/22 01:53:46;;;;;;;16.83;15.25;;;6.40;99.90;;;;;;5049889;28;20041;-82
2022/04/22 01:56:12;;;;;;;18.40;16.52;;;6.30;99.90;;;;;;5046022;28;20029;-81
2022/04/22 01:58:38;;;;;;;21.58;15.93;;;6.20;99.90;;;;;;5051814;28;20481;-81
2022/04/22 02:01:05;;;;;;;20.52;16.48;;;6.20;99.90;;;;;;5047357;28;20044;-82
2022/04/22 02:03:31;;;;;;;19.50;17.52;;;6.10;99.90;;;;;;5046893;28;20033;-83
2022/04/22 02:05:58;;;;;;;20.05;17.70;;;6.10;99.90;;;;;;5048315;28;20025;-83
2022/04/22 02:08:24;;;;;;;20.67;18.77;;;6.10;99.90;;;;;;5051329;28;20052;-82
2022/04/22 02:10:50;;;;;;;19.17;16.48;;;6.10;99.90;;;;;;5050851;28;20029;-82
2022/04/22 02:13:16;;;;;;;22.05;19.80;;;6.10;99.90;;;;;;5048401;28;20025;-81
2022/04/22 02:15:42;;;;;;;20.50;18.45;;;6.10;99.90;;;;;;5054214;28;20032;-83
2022/04/22 02:18:09;;;;;;;18.88;17.02;;;6.10;99.90;;;;;;5050001;28;20044;-81
2022/04/22 02:20:35;;;;;;;20.58;18.27;;;6.10;99.90;;;;;;5067470;28;20037;-82
2022/04/22 02:23:01;;;;;;;18.58;16.25;;;6.10;99.90;;;;;;5058852;28;20044;-83
2022/04/22 02:25:27;;;;;;;18.40;16.70;;;6.10;99.90;;;;;;5063347;28;20025;-82
2022/04/22 02:30:39;;;;;;;19.83;17.75;;;5.90;99.90;;;;;;5052692;28;20048;-82
2022/04/22 02:33:05;;;;;;;20.38;18.27;;;5.90;99.90;;;;;;5042775;28;20478;-83
2022/04/22 02:35:32;;;;;;;20.25;16.95;;;5.70;99.90;;;;;;5053038;28;20017;-82
2022/04/22 02:37:58;;;;;;;19.05;17.25;;;5.70;99.90;;;;;;5051509;28;20401;-82
2022/04/22 02:45:54;;;;;;;22.20;19.45;;;5.50;99.90;;;;;;5053945;28;20044;-82
2022/04/22 02:48:21;;;;;;;21.27;18.65;;;5.50;99.90;;;;;;5048020;28;20399;-82
2022/04/22 02:50:48;;;;;;;20.65;18.33;;;5.60;99.90;;;;;;5051631;28;20033;-82
2022/04/22 02:53:14;;;;;;;22.23;20.02;;;5.70;99.90;;;;;;5050737;28;20025;-83
2022/04/22 02:55:48;;;;;;;22.10;19.52;;;5.70;99.90;;;;;;5052047;28;20029;-82
2022/04/22 02:58:15;;;;;;;22.98;20.10;;;5.70;99.90;;;;;;5048924;28;20044;-81
2022/04/22 03:00:41;;;;;;;19.38;17.58;;;5.70;99.90;;;;;;5050394;28;20727;-83
2022/04/22 03:03:08;;;;;;;20.40;18.25;;;5.70;99.90;;;;;;5043888;28;20029;-83
2022/04/22 03:05:34;;;;;;;25.50;18.63;;;5.70;99.90;;;;;;5052833;28;20037;-83
2022/04/22 03:08:01;;;;;;;20.52;18.40;;;5.60;99.90;;;;;;5047582;28;20030;-83
2022/04/22 03:10:28;;;;;;;21.77;19.67;;;5.70;99.90;;;;;;5051726;28;20040;-82
2022/04/22 03:12:54;;;;;;;22.70;20.33;;;5.70;99.90;;;;;;5048417;28;20048;-82
2022/04/22 03:15:20;;;;;;;20.77;18.77;;;5.70;99.90;;;;;;5048801;28;20455;-82
2022/04/22 03:17:46;;;;;;;22.65;20.08;;;5.60;99.90;;;;;;5051431;28;20048;-82
2022/04/22 03:20:13;;;;;;;21.67;19.38;;;5.60;99.90;;;;;;5054635;28;20028;-82
2022/04/22 03:22:39;;;;;;;22.00;19.67;;;5.60;99.90;;;;;;5056309;28;20061;-82
2022/04/22 03:25:05;;;;;;;23.40;21.00;;;5.40;99.90;;;;;;5055279;28;20036;-81
2022/04/22 03:27:31;;;;;;;23.75;20.42;;;5.40;99.90;;;;;;5052533;28;20048;-81
2022/04/22 03:29:58;;;;;;;21.52;19.42;;;5.40;99.90;;;;;;5052082;28;20033;-81
2022/04/22 03:32:25;;;;;;;22.73;20.73;;;5.40;99.90;;;;;;5053467;28;20037;-81
2022/04/22 03:34:51;;;;;;;21.90;19.35;;;5.30;99.90;;;;;;5053734;28;20040;-83
2022/04/22 03:37:17;;;;;;;21.25;19.13;;;5.20;99.90;;;;;;5050870;28;20053;-82
2022/04/22 03:39:43;;;;;;;24.88;22.48;;;5.10;99.90;;;;;;5048738;28;20028;-83
2022/04/22 03:42:09;;;;;;;25.88;23.30;;;5.10;99.90;;;;;;5054242;28;20052;-81
2022/04/22 03:44:36;;;;;;;27.98;25.10;;;5.10;99.90;;;;;;5050349;28;20032;-82
2022/04/22 03:47:03;;;;;;;30.10;26.33;;;5.20;99.90;;;;;;5058584;28;20390;-83
2022/04/22 03:49:33;;;;;;;28.45;25.48;;;5.30;99.90;;;;;;5053710;28;20049;-81
2022/04/22 03:51:59;;;;;;;27.20;24.42;;;5.30;99.90;;;;;;5052001;28;20025;-81
2022/04/22 03:54:26;;;;;;;27.98;25.20;;;5.30;99.90;;;;;;5048594;28;20029;-81
2022/04/22 03:59:37;;;;;;;28.70;23.98;;;5.20;99.90;;;;;;5053781;28;20045;-82
2022/04/22 04:02:03;;;;;;;28.40;23.23;;;5.20;99.90;;;;;;5053553;28;20048;-81
2022/04/22 04:04:30;;;;;;;26.25;23.67;;;5.10;99.90;;;;;;5049799;28;20029;-80
2022/04/22 04:06:56;;;;;;;27.38;24.40;;;5.10;99.90;;;;;;5049019;28;20109;-80
2022/04/22 04:17:41;;;;;;;28.75;26.02;;;5.20;99.90;;;;;;5064405;28;20045;-84
2022/04/22 04:25:41;;;;;;;31.98;27.63;;;5.30;99.90;;;;;;5055141;28;20096;-85
2022/04/22 04:28:10;;;;;;;31.10;27.83;;;5.30;99.90;;;;;;5049034;28;20036;-86
2022/04/22 04:30:41;;;;;;;29.48;25.92;;;5.40;99.90;;;;;;5049941;28;20034;-87
2022/04/22 04:33:08;;;;;;;29.00;25.77;;;5.30;99.90;;;;;;5049698;28;20041;-86
2022/04/22 04:35:35;;;;;;;30.85;27.65;;;5.30;99.90;;;;;;5050121;28;20029;-86
2022/04/22 04:38:02;;;;;;;29.05;26.17;;;5.30;99.90;;;;;;5046242;28;20053;-84
2022/04/22 04:40:29;;;;;;;31.73;28.58;;;5.30;99.90;;;;;;5047949;28;20052;-84
2022/04/22 04:42:55;;;;;;;34.22;28.90;;;5.30;99.90;;;;;;5052385;28;20029;-86
2022/04/22 04:45:21;;;;;;;32.17;27.38;;;5.40;99.90;;;;;;5047412;28;20049;-85
2022/04/22 04:47:47;;;;;;;31.92;26.45;;;5.40;99.90;;;;;;5052226;28;20057;-86
2022/04/22 04:50:14;;;;;;;29.58;25.83;;;5.40;99.90;;;;;;5047659;28;20040;-85
2022/04/22 04:52:41;;;;;;;30.58;27.08;;;5.40;99.90;;;;;;5045562;28;20030;-86
2022/04/22 04:55:09;;;;;;;28.77;25.40;;;5.40;99.90;;;;;;5056696;28;20040;-86
2022/04/22 04:57:36;;;;;;;27.63;24.83;;;5.50;99.90;;;;;;5049869;28;20402;-86
2022/04/22 05:00:08;;;;;;;32.42;26.13;;;5.50;99.90;;;;;;5049070;28;20029;-85
2022/04/22 05:02:35;;;;;;;29.13;25.95;;;5.50;99.90;;;;;;5048018;28;20054;-85
2022/04/22 05:05:03;;;;;;;29.30;26.17;;;5.50;99.90;;;;;;5046217;28;20459;-86
2022/04/22 05:07:29;;;;;;;29.15;24.38;;;5.80;99.90;;;;;;5047164;28;20048;-84
2022/04/22 05:09:56;;;;;;;25.85;23.30;;;6.00;99.90;;;;;;5051346;28;20502;-87
2022/04/22 05:12:22;;;;;;;23.15;21.05;;;6.30;99.90;;;;;;5047992;28;20025;-86
2022/04/22 05:14:49;;;;;;;23.30;20.30;;;6.90;99.90;;;;;;5050221;28;20033;-87
2022/04/22 05:17:15;;;;;;;23.92;20.67;;;7.50;99.90;;;;;;5061477;28;20033;-84
2022/04/22 05:19:41;;;;;;;20.80;18.48;;;8.00;99.90;;;;;;5072628;28;20459;-86
2022/04/22 05:22:07;;;;;;;22.83;18.95;;;8.30;99.90;;;;;;5071803;28;20056;-84
2022/04/22 05:24:35;;;;;;;19.88;17.85;;;8.60;99.90;;;;;;5070248;28;20029;-85
2022/04/22 05:27:01;;;;;;;21.58;18.05;;;8.90;99.90;;;;;;5066230;28;20047;-84
2022/04/22 05:34:58;;;;;;;18.20;15.50;;;9.30;99.90;;;;;;5049016;28;20037;-85
2022/04/22 05:37:24;;;;;;;18.20;16.38;;;9.20;99.90;;;;;;5051134;28;20056;-86
2022/04/22 05:39:50;;;;;;;15.95;14.45;;;9.40;99.90;;;;;;5052367;28;20470;-85
2022/04/22 05:42:16;;;;;;;15.32;13.68;;;9.70;99.90;;;;;;5052373;28;20041;-85
2022/04/22 05:44:42;;;;;;;14.27;12.20;;;10.00;99.90;;;;;;5051335;28;20032;-84
2022/04/22 05:47:08;;;;;;;14.90;13.15;;;10.40;99.90;;;;;;5050288;28;20477;-86
2022/04/22 05:49:35;;;;;;;18.92;12.98;;;10.60;99.90;;;;;;5055179;28;20033;-85
2022/04/22 05:52:01;;;;;;;14.52;12.63;;;10.50;99.90;;;;;;5060667;28;20040;-86
2022/04/22 05:54:27;;;;;;;19.17;15.13;;;10.50;99.90;;;;;;5052759;28;20040;-86
2022/04/22 05:56:53;;;;;;;17.40;12.07;;;10.60;99.90;;;;;;5054444;28;20029;-83
2022/04/22 05:59:19;;;;;;;13.27;11.43;;;10.80;99.50;;;;;;5048092;28;20044;-86
2022/04/22 06:01:46;;;;;;;13.63;12.30;;;11.50;97.40;;;;;;5055005;28;20037;-85
2022/04/22 06:04:12;;;;;;;12.35;11.05;;;11.50;96.70;;;;;;5050249;28;20050;-85
2022/04/22 06:06:38;;;;;;;13.27;12.02;;;11.30;97.40;;;;;;5047905;28;20033;-85
2022/04/22 06:11:49;;;;;;;14.85;12.73;;;11.60;96.60;;;;;;5055099;28;20038;-86
2022/04/22 06:14:15;;;;;;;13.30;11.88;;;12.30;95.10;;;;;;5051059;28;20032;-83
2022/04/22 06:16:41;;;;;;;12.65;11.40;;;12.80;93.40;;;;;;5056125;28;20029;-87
2022/04/22 06:19:07;;;;;;;13.52;11.85;;;13.00;92.30;;;;;;5059717;28;20052;-86
2022/04/22 06:21:34;;;;;;;13.50;11.40;;;12.70;92.40;;;;;;5054722;28;20172;-85
2022/04/22 06:24:00;;;;;;;14.50;10.77;;;12.60;92.50;;;;;;5057171;28;20048;-86
2022/04/22 06:26:26;;;;;;;13.48;12.18;;;12.70;92.40;;;;;;5053641;28;20037;-87
2022/04/22 06:28:52;;;;;;;15.43;12.57;;;13.20;91.30;;;;;;5052362;28;20040;-86
2022/04/22 06:31:19;;;;;;;13.63;11.77;;;13.60;90.50;;;;;;5050469;28;20032;-86
2022/04/22 06:33:45;;;;;;;12.20;10.95;;;13.20;91.30;;;;;;5049888;28;20051;-88
2022/04/22 06:36:14;;;;;;;12.13;10.95;;;12.90;91.40;;;;;;5050909;28;20036;-85
2022/04/22 06:38:44;;;;;;;17.85;11.15;;;12.80;92.10;;;;;;5050636;28;20402;-89
2022/04/22 06:46:41;;;;;;;14.07;11.90;;;14.30;87.10;;;;;;5049586;28;20468;-75
2022/04/22 06:49:11;;;;;;;15.82;12.20;;;13.60;89.10;;;;;;5049043;28;20490;-76
2022/04/22 06:51:38;;;;;;;11.68;9.75;;;14.20;86.90;;;;;;5051096;28;20044;-75
2022/04/22 06:54:05;;;;;;;16.02;11.18;;;14.30;81.60;;;;;;5052169;28;20032;-76
2022/04/22 06:56:34;;;;;;;11.02;9.90;;;14.50;81.70;;;;;;5053609;28;20033;-75
2022/04/22 06:59:01;;;;;;;13.23;9.77;;;13.30;82.80;;;;;;5049171;28;20057;-75
2022/04/22 07:01:27;;;;;;;12.70;10.48;;;13.30;85.10;;;;;;5048632;28;20032;-75
2022/04/22 07:03:53;;;;;;;12.30;9.95;;;14.10;81.90;;;;;;5046488;28;20033;-75
2022/04/22 07:06:20;;;;;;;11.70;9.63;;;15.10;79.10;;;;;;5054314;28;20025;-75
2022/04/22 07:08:46;;;;;;;11.73;8.82;;;15.50;76.60;;;;;;5052925;28;20447;-76
2022/04/22 07:11:21;;;;;;;10.60;9.40;;;15.20;74.30;;;;;;5049234;28;20045;-75
2022/04/22 07:13:48;;;;;;;11.30;10.20;;;13.90;77.10;;;;;;5050782;28;20398;-75
2022/04/22 07:16:17;;;;;;;11.25;10.25;;;13.90;78.30;;;;;;5052485;28;20037;-77
2022/04/22 07:18:44;;;;;;;14.90;10.35;;;14.40;75.00;;;;;;5052634;28;20045;-80
2022/04/22 07:21:11;;;;;;;10.70;9.02;;;14.70;74.10;;;;;;5050955;28;20025;-76
2022/04/22 07:23:38;;;;;;;9.77;8.60;;;15.10;72.00;;;;;;5049819;28;20040;-76
2022/04/22 07:26:09;;;;;;;11.15;9.93;;;14.90;73.50;;;;;;5049750;28;20048;-76
2022/04/22 07:28:38;;;;;;;13.05;9.48;;;15.30;72.80;;;;;;5051526;28;20052;-76
2022/04/22 07:31:05;;;;;;;10.88;9.55;;;14.90;73.20;;;;;;5045394;28;20040;-75
2022/04/22 07:33:32;;;;;;;9.13;8.20;;;15.10;72.70;;;;;;5046345;28;20220;-75
2022/04/22 07:35:58;;;;;;;10.25;9.10;;;15.20;70.40;;;;;;5044597;28;20048;-75
2022/04/22 07:38:24;;;;;;;10.80;9.70;;;14.40;72.20;;;;;;5051909;28;20071;-75
2022/04/22 07:40:51;;;;;;;12.38;9.23;;;14.50;72.40;;;;;;5050671;28;20053;-75
2022/04/22 07:48:55;;;;;;;16.55;9.05;;;16.10;66.70;;;;;;5042315;28;20371;-76
2022/04/22 07:51:25;;;;;;;13.65;9.18;;;15.70;67.00;;;;;;5052152;28;20029;-76
2022/04/22 07:53:51;;;;;;;10.27;9.25;;;16.10;67.20;;;;;;5063359;28;20025;-76
2022/04/22 07:56:18;;;;;;;9.23;8.15;;;16.20;64.40;;;;;;5058279;28;20359;-76
2022/04/22 07:58:44;;;;;;;9.52;8.50;;;15.60;65.40;;;;;;5056743;28;20044;-76
2022/04/22 08:01:10;;;;;;;10.05;8.18;;;15.70;65.40;;;;;;5052010;28;20033;-76
2022/04/22 08:03:36;;;;;;;11.18;8.68;;;15.70;66.20;;;;;;5043364;28;20021;-78
2022/04/22 08:06:06;;;;;;;9.38;7.80;;;15.70;65.30;;;;;;5064533;28;20068;-77
2022/04/22 08:08:32;;;;;;;10.48;9.30;;;15.70;67.20;;;;;;5053901;28;20144;-75
2022/04/22 08:10:59;;;;;;;9.45;8.45;;;15.80;65.80;;;;;;5051606;28;20048;-79
2022/04/22 08:13:28;;;;;;;8.93;7.88;;;16.20;64.30;;;;;;5052246;28;20044;-77
2022/04/22 08:15:55;;;;;;;11.38;8.05;;;15.90;64.20;;;;;;5047271;28;20465;-77
2022/04/22 08:18:21;;;;;;;10.55;8.77;;;14.70;67.30;;;;;;5052244;28;20036;-77
2022/04/22 08:20:47;;;;;;;11.88;8.15;;;14.40;68.00;;;;;;5050679;28;20033;-75
2022/04/22 08:23:13;;;;;;;9.30;7.85;;;15.20;68.20;;;;;;5042601;28;20040;-76
2022/04/22 08:25:39;;;;;;;8.63;7.75;;;15.70;66.10;;;;;;5051059;28;20025;-77
2022/04/22 08:28:06;;;;;;;10.25;8.65;;;16.00;64.80;;;;;;5052887;28;20029;-77
2022/04/22 08:30:35;;;;;;;11.70;8.15;;;16.20;64.30;;;;;;5050972;28;20397;-76
2022/04/22 08:33:01;;;;;;;7.72;6.95;;;16.30;65.00;;;;;;5050278;28;20028;-78
2022/04/22 08:35:27;;;;;;;8.43;7.53;;;16.40;64.10;;;;;;5048408;28;20040;-77
2022/04/22 08:37:54;;;;;;;8.93;8.05;;;15.90;64.60;;;;;;5050561;28;20056;-76
2022/04/22 08:40:21;;;;;;;10.85;7.75;;;15.70;63.80;;;;;;5051836;28;20056;-77
2022/04/22 08:42:47;;;;;;;9.65;8.65;;;16.00;63.10;;;;;;5045807;28;20386;-74
2022/04/22 08:45:14;;;;;;;9.70;7.32;;;16.60;62.40;;;;;;5049076;28;20034;-77
2022/04/22 08:50:31;;;;;;;9.35;8.45;;;17.00;60.70;;;;;;5048699;28;20033;-75
2022/04/22 08:53:07;;;;;;;11.05;8.90;;;16.80;60.50;;;;;;5058602;28;20032;-76
2022/04/22 08:55:34;;;;;;;8.68;7.65;;;17.00;62.50;;;;;;5059314;28;20767;-77
2022/04/22 08:58:03;;;;;;;9.63;7.30;;;16.90;61.40;;;;;;5054254;28;20041;-77
2022/04/22 09:00:33;;;;;;;7.57;6.88;;;17.00;60.80;;;;;;5031894;28;20041;-78
2022/04/22 09:02:59;;;;;;;8.73;6.95;;;16.70;61.70;;;;;;5044711;28;20025;-77
2022/04/22 09:05:26;;;;;;;8.70;7.90;;;16.90;61.20;;;;;;5051868;28;20494;-76
2022/04/22 09:07:54;;;;;;;8.65;7.80;;;16.60;62.10;;;;;;5052113;28;20040;-76
2022/04/22 09:10:20;;;;;;;11.15;7.97;;;17.30;60.50;;;;;;5046058;28;20033;-76
2022/04/22 09:12:52;;;;;;;8.93;6.47;;;17.80;59.80;;;;;;5046805;28;20033;-77
2022/04/22 09:15:23;;;;;;;13.45;7.68;;;17.30;59.70;;;;;;5046277;28;20029;-77
2022/04/22 09:17:50;;;;;;;6.97;6.28;;;17.10;59.90;;;;;;5047324;28;20040;-75
2022/04/22 09:20:18;;;;;;;7.32;6.50;;;17.80;58.70;;;;;;5046274;28;20041;-76
2022/04/22 09:22:44;;;;;;;15.70;6.00;;;17.00;60.00;;;;;;5049117;28;20036;-76
2022/04/22 09:25:11;;;;;;;7.80;6.65;;;16.70;60.90;;;;;;5050860;28;20499;-75
2022/04/22 09:27:44;;;;;;;6.72;6.07;;;17.10;59.50;;;;;;5046239;28;20033;-77
2022/04/22 09:30:12;;;;;;;7.63;6.82;;;17.00;58.80;;;;;;5051269;28;20029;-75
2022/04/22 09:32:40;;;;;;;7.57;6.65;;;17.40;58.40;;;;;;5048943;28;20032;-76
2022/04/22 09:35:16;;;;;;;8.40;6.60;;;16.80;59.40;;;;;;5051671;28;20029;-76
2022/04/22 09:43:37;;;;;;;7.72;5.88;;;17.50;59.40;;;;;;5043549;28;20037;-77
2022/04/22 09:46:04;;;;;;;8.77;7.45;;;17.90;57.90;;;;;;5046926;28;20394;-77
2022/04/22 09:48:41;;;;;;;7.18;6.47;;;17.90;57.20;;;;;;5037370;28;20044;-76
2022/04/22 09:51:24;;;;;;;7.55;6.07;;;18.00;57.20;;;;;;5051511;28;20048;-76
2022/04/22 09:54:05;;;;;;;7.00;5.72;;;17.50;56.60;;;;;;5039113;28;20037;-76
2022/04/22 09:56:35;;;;;;;6.63;5.85;;;18.00;56.40;;;;;;5052609;28;20025;-78
2022/04/22 09:59:22;;;;;;;7.50;5.40;;;18.10;56.60;;;;;;5051591;28;20029;-78
2022/04/22 10:01:49;;;;;;;7.13;6.10;;;18.30;57.00;;;;;;5047656;28;20494;-78
2022/04/22 10:04:20;;;;;;;6.38;5.75;;;17.50;57.90;;;;;;5053201;28;20037;-77
2022/04/22 10:06:47;;;;;;;6.53;5.80;;;17.00;58.40;;;;;;5054169;28;20458;-75
2022/04/22 10:09:14;;;;;;;6.90;5.80;;;17.00;57.90;;;;;;5046825;28;20041;-77
2022/04/22 10:11:43;;;;;;;6.75;5.45;;;16.60;59.20;;;;;;5054764;28;20028;-77
2022/04/22 10:14:10;;;;;;;10.13;6.68;;;16.80;59.20;;;;;;5046926;28;20025;-76
2022/04/22 10:16:38;;;;;;;7.10;5.47;;;16.60;58.50;;;;;;5054880;28;20025;-76
2022/04/22 10:19:08;;;;;;;8.05;5.90;;;16.60;58.80;;;;;;5057742;28;20040;-77
2022/04/22 10:21:35;;;;;;;9.55;6.38;;;16.70;57.90;;;;;;5054263;28;20594;-76
2022/04/22 10:24:01;;;;;;;7.53;5.85;;;16.60;58.30;;;;;;5055173;28;20044;-78
2022/04/22 10:26:27;;;;;;;7.72;6.05;;;16.90;58.00;;;;;;5054377;28;20040;-77
2022/04/22 10:28:55;;;;;;;7.72;6.50;;;16.50;59.00;;;;;;5054679;28;20040;-81
2022/04/22 10:31:23;;;;;;;7.15;6.45;;;16.50;59.10;;;;;;5054832;28;20036;-77
2022/04/22 10:33:49;;;;;;;8.65;5.15;;;16.80;58.50;;;;;;5037545;28;20059;-76
2022/04/22 10:36:17;;;;;;;7.30;5.88;;;17.10;58.30;;;;;;5049631;28;20048;-80
2022/04/22 10:38:48;;;;;;;5.68;4.95;;;17.20;57.60;;;;;;5045269;28;20490;-81
2022/04/22 10:41:22;;;;;;;5.70;5.10;;;16.80;58.00;;;;;;5057571;28;20390;-85
2022/04/22 10:49:38;;;;;;;6.90;6.20;;;16.30;59.10;;;;;;5051866;28;20033;-84
2022/04/22 10:52:11;;;;;;;7.03;6.00;;;16.80;58.90;;;;;;5056870;28;20037;-84
2022/04/22 10:54:52;;;;;;;7.38;6.00;;;17.10;58.20;;;;;;5051766;28;20025;-84
2022/04/22 10:57:27;;;;;;;6.15;5.18;;;16.60;58.40;;;;;;5053883;28;20040;-85
2022/04/22 11:00:11;;;;;;;7.68;6.28;;;17.00;58.20;;;;;;5044233;28;20470;-85
2022/04/22 11:02:41;;;;;;;6.95;6.03;;;17.40;57.70;;;;;;5050196;28;20037;-83
2022/04/22 11:05:19;;;;;;;6.65;5.07;;;17.40;57.60;;;;;;5049584;28;20044;-83
2022/04/22 11:07:57;;;;;;;8.40;6.82;;;17.20;57.90;;;;;;5050001;28;20032;-84
2022/04/22 11:10:53;;;;;;;6.90;6.30;;;17.00;58.10;;;;;;5052619;28;20470;-83
2022/04/22 11:13:38;;;;;;;6.25;5.65;;;17.10;57.30;;;;;;5051510;28;20044;-84
2022/04/22 11:16:11;;;;;;;8.30;7.40;;;17.50;57.20;;;;;;5054991;28;20041;-85
2022/04/22 11:18:40;;;;;;;10.43;7.57;;;17.40;57.30;;;;;;5061129;28;20033;-84
2022/04/22 11:21:15;;;;;;;5.97;5.38;;;17.20;57.20;;;;;;5057981;28;20387;-87
2022/04/22 11:23:44;;;;;;;6.80;5.82;;;17.20;57.50;;;;;;5039898;28;20045;-84
2022/04/22 11:26:16;;;;;;;11.82;5.88;;;17.70;57.00;;;;;;5065690;28;20036;-86
2022/04/22 11:28:44;;;;;;;6.43;5.55;;;17.70;57.00;;;;;;5056334;28;20497;-86
2022/04/22 11:31:12;;;;;;;7.13;5.85;;;17.60;56.80;;;;;;5053224;28;20391;-86
2022/04/22 11:33:54;;;;;;;9.73;7.60;;;17.60;56.70;;;;;;5055748;28;20026;-89
2022/04/22 11:36:24;;;;;;;7.25;5.18;;;17.50;56.30;;;;;;5064047;28;20033;-85
2022/04/22 11:38:52;;;;;;;6.03;5.43;;;17.30;56.60;;;;;;5053813;28;20509;-85
2022/04/22 11:41:19;;;;;;;7.68;5.75;;;17.30;57.30;;;;;;5054283;28;20037;-88
2022/04/22 11:43:49;;;;;;;8.43;6.43;;;17.60;56.60;;;;;;5048143;28;20494;-86
2022/04/22 11:46:17;;;;;;;8.23;6.77;;;17.60;56.40;;;;;;5053098;28;20029;-82
2022/04/22 11:48:48;;;;;;;6.93;6.32;;;18.10;55.80;;;;;;5062124;28;20298;-84
2022/04/22 11:51:21;;;;;;;5.80;5.00;;;17.90;55.70;;;;;;5053670;28;20099;-87
2022/04/22 11:53:52;;;;;;;11.65;8.88;;;17.70;56.20;;;;;;5052396;28;20509;-85
2022/04/22 11:56:23;;;;;;;8.30;5.65;;;17.90;55.40;;;;;;5056357;28;20021;-87
2022/04/22 11:58:57;;;;;;;5.68;5.18;;;17.90;55.20;;;;;;5056482;28;20067;-87
2022/04/22 12:08:00;;;;;;;6.47;5.13;;;18.20;55.60;;;;;;5052905;28;20029;-85
2022/04/22 12:09:50;;;;;;;9.80;6.82;;;18.30;55.10;;;;;;5054890;28;20041;-86
2022/04/22 12:12:17;;;;;;;6.88;5.75;;;18.20;55.20;;;;;;5048793;28;20459;-85
2022/04/22 12:14:44;;;;;;;7.88;5.65;;;18.30;55.30;;;;;;5043462;28;20044;-87
2022/04/22 12:17:10;;;;;;;14.85;5.90;;;18.40;54.60;;;;;;5054553;28;20032;-89
2022/04/22 12:19:36;;;;;;;6.88;6.18;;;18.60;54.50;;;;;;5048409;28;20494;-84
2022/04/22 12:22:04;;;;;;;7.65;6.00;;;18.60;54.50;;;;;;5053492;28;20398;-87
2022/04/22 12:24:30;;;;;;;8.07;7.28;;;18.50;54.30;;;;;;5049662;28;20029;-86
2022/04/22 12:26:56;;;;;;;9.57;6.88;;;18.30;55.10;;;;;;5048972;28;20037;-83
2022/04/22 12:29:24;;;;;;;6.35;5.72;;;18.60;54.40;;;;;;5060701;28;20041;-85
2022/04/22 12:31:52;;;;;;;5.57;5.07;;;18.80;54.20;;;;;;5068693;28;20033;-85
2022/04/22 12:34:30;;;;;;;6.85;5.32;;;19.00;54.30;;;;;;5070746;28;20043;-82
2022/04/22 12:36:59;;;;;;;6.80;6.07;;;19.20;53.60;;;;;;5064526;28;20053;-85
2022/04/22 12:39:32;;;;;;;6.97;5.78;;;19.10;53.90;;;;;;5061869;28;20036;-81
2022/04/22 12:41:58;;;;;;;4.68;3.83;;;19.30;53.20;;;;;;5056740;28;20060;-83
2022/04/22 12:44:25;;;;;;;7.97;5.25;;;19.30;52.50;;;;;;5047428;28;20033;-84
2022/04/22 12:52:32;;;;;;;7.68;5.90;;;18.80;52.60;;;;;;5052310;28;20047;-82
2022/04/22 12:55:10;;;;;;;6.78;6.05;;;18.90;52.30;;;;;;5044744;28;20033;-83
2022/04/22 12:57:36;;;;;;;5.72;4.78;;;19.00;52.60;;;;;;5043905;28;20207;-83
2022/04/22 13:00:15;;;;;;;6.72;6.03;;;19.50;52.00;;;;;;5051761;28;20494;-82
2022/04/22 13:02:41;;;;;;;6.68;5.40;;;19.30;52.20;;;;;;5047665;28;20044;-84
2022/04/22 13:05:17;;;;;;;5.88;5.13;;;19.30;51.40;;;;;;5049349;28;20044;-81
2022/04/22 13:07:49;;;;;;;5.97;5.47;;;19.10;51.50;;;;;;5053894;28;20037;-82
2022/04/22 13:10:19;;;;;;;12.40;10.57;;;19.20;51.10;;;;;;5051746;28;20037;-82
2022/04/22 13:12:46;;;;;;;5.80;4.93;;;19.30;51.20;;;;;;5052267;28;20042;-88
2022/04/22 13:15:18;;;;;;;5.30;4.45;;;19.40;51.10;;;;;;5055034;28;20100;-86
2022/04/22 13:17:46;;;;;;;6.07;4.40;;;19.30;50.60;;;;;;5049540;28;20045;-86
2022/04/22 13:20:15;;;;;;;5.78;5.18;;;18.90;51.00;;;;;;5050041;28;20521;-82
2022/04/22 13:22:41;;;;;;;4.72;3.55;;;18.50;51.10;;;;;;5053934;28;20044;-84
2022/04/22 13:25:12;;;;;;;3.75;3.42;;;19.20;51.00;;;;;;5052297;28;20041;-85
2022/04/22 13:27:40;;;;;;;4.60;4.20;;;19.40;50.90;;;;;;5053650;28;20029;-85
2022/04/22 13:30:08;;;;;;;4.53;4.13;;;19.30;50.10;;;;;;5054272;28;20068;-84
2022/04/22 13:32:35;;;;;;;5.28;4.10;;;19.80;49.60;;;;;;5055019;28;20036;-86
2022/04/22 13:35:04;;;;;;;5.55;4.72;;;19.80;49.30;;;;;;5064300;28;20037;-86
2022/04/22 13:37:34;;;;;;;5.83;4.00;;;19.90;49.30;;;;;;5056271;28;20057;-89
2022/04/22 13:40:01;;;;;;;5.63;3.78;;;20.00;49.30;;;;;;5058412;28;20296;-86
2022/04/22 13:42:27;;;;;;;6.22;4.18;;;20.10;49.20;;;;;;5052818;28;20040;-87
2022/04/22 13:53:08;;;;;;;5.53;4.88;;;19.90;49.30;;;;;;5052546;28;20140;-87
2022/04/22 13:55:39;;;;;;;4.53;3.40;;;20.10;49.20;;;;;;5059211;28;20040;-88
2022/04/22 13:58:06;;;;;;;4.95;4.45;;;20.30;48.50;;;;;;5058899;28;20052;-87
2022/04/22 14:00:32;;;;;;;4.93;4.43;;;20.70;48.10;;;;;;5055341;28;20036;-88
2022/04/22 14:02:58;;;;;;;4.35;3.95;;;20.50;48.20;;;;;;5058207;28;20036;-86
2022/04/22 14:05:24;;;;;;;4.95;4.30;;;20.40;48.30;;;;;;5049919;28;20026;-87
2022/04/22 14:07:51;;;;;;;7.45;4.43;;;19.90;48.80;;;;;;5055659;28;20048;-88